sensor_id;sensor_type;location;lat;lon;timestamp;temperature;humidity
21216;DHT22;10765;50.954;5.322;2022-08-03T00:01:05;20.10;99.90
21216;DHT22;10765;50.954;5.322;2022-08-03T00:03:32;20.10;1.00
21216;DHT22;10765;50.954;5.322;2022-08-03T00:05:59;20.00;1.00
21216;DHT22;10765;50.954;5.322;2022-08-03T00:08:26;20.00;1.00
21216;DHT22;10765;50.954;5.322;2022-08-03T00:10:53;20.00;1.00
21216;DHT22;10765;50.954;5.322;2022-08-03T00:13:20;19.90;1.00
21216;DHT22;10765;50.954;5.322;2022-08-03T00:15:48;19.90;99.90
21216;DHT22;10765;50.954;5.322;2022-08-03T00:18:15;19.80;99.90
21216;DHT22;10765;50.954;5.322;2022-08-03T00:20:42;19.80;1.00
21216;DHT22;10765;50.954;5.322;2022-08-03T00:23:09;19.70;99.90
21216;DHT22;10765;50.954;5.322;2022-08-03T00:25:36;19.70;1.00
21216;DHT22;10765;50.954;5.322;2022-08-03T00:28:04;19.70;99.90
21216;DHT22;10765;50.954;5.322;2022-08-03T00:30:31;19.60;99.90
21216;DHT22;10765;50.954;5.322;2022-08-03T00:33:00;19.50;99.90
21216;DHT22;10765;50.954;5.322;2022-08-03T00:35:27;19.30;1.00
21216;DHT22;10765;50.954;5.322;2022-08-03T00:37:54;19.40;1.00
21216;DHT22;10765;50.954;5.322;2022-08-03T00:40:21;19.30;99.90
21216;DHT22;10765;50.954;5.322;2022-08-03T00:42:51;19.30;99.90
21216;DHT22;10765;50.954;5.322;2022-08-03T00:45:19;19.30;1.00
21216;DHT22;10765;50.954;5.322;2022-08-03T00:47:47;19.40;1.00
21216;DHT22;10765;50.954;5.322;2022-08-03T00:50:16;19.30;99.90
21216;DHT22;10765;50.954;5.322;2022-08-03T00:52:43;19.20;1.00
21216;DHT22;10765;50.954;5.322;2022-08-03T00:55:11;19.10;99.90
21216;DHT22;10765;50.954;5.322;2022-08-03T00:57:38;19.00;99.90
21216;DHT22;10765;50.954;5.322;2022-08-03T01:00:06;18.90;1.00
21216;DHT22;10765;50.954;5.322;2022-08-03T01:02:34;19.10;1.00
21216;DHT22;10765;50.954;5.322;2022-08-03T01:05:01;19.00;99.90
21216;DHT22;10765;50.954;5.322;2022-08-03T01:07:40;19.10;1.00
21216;DHT22;10765;50.954;5.322;2022-08-03T01:10:12;19.10;1.00
21216;DHT22;10765;50.954;5.322;2022-08-03T01:12:46;19.10;1.00
21216;DHT22;10765;50.954;5.322;2022-08-03T01:15:18;19.00;99.90
21216;DHT22;10765;50.954;5.322;2022-08-03T01:17:52;19.10;1.00
21216;DHT22;10765;50.954;5.322;2022-08-03T01:20:23;19.10;1.00
21216;DHT22;10765;50.954;5.322;2022-08-03T01:23:02;19.00;1.00
21216;DHT22;10765;50.954;5.322;2022-08-03T01:25:39;19.00;99.90
21216;DHT22;10765;50.954;5.322;2022-08-03T01:28:21;19.00;25.40
21216;DHT22;10765;50.954;5.322;2022-08-03T01:30:57;19.00;99.90
21216;DHT22;10765;50.954;5.322;2022-08-03T01:33:29;19.00;99.90
21216;DHT22;10765;50.954;5.322;2022-08-03T01:36:03;18.90;99.90
21216;DHT22;10765;50.954;5.322;2022-08-03T01:38:33;18.80;99.90
21216;DHT22;10765;50.954;5.322;2022-08-03T01:41:04;18.90;1.00
21216;DHT22;10765;50.954;5.322;2022-08-03T01:43:33;18.80;99.90
21216;DHT22;10765;50.954;5.322;2022-08-03T01:46:02;18.80;99.90
21216;DHT22;10765;50.954;5.322;2022-08-03T01:48:30;18.80;1.00
21216;DHT22;10765;50.954;5.322;2022-08-03T01:50:58;18.70;99.90
21216;DHT22;10765;50.954;5.322;2022-08-03T01:53:27;18.70;82.40
21216;DHT22;10765;50.954;5.322;2022-08-03T01:55:55;18.70;99.90
21216;DHT22;10765;50.954;5.322;2022-08-03T01:58:23;18.70;1.00
21216;DHT22;10765;50.954;5.322;2022-08-03T02:00:51;18.70;99.90
21216;DHT22;10765;50.954;5.322;2022-08-03T02:03:22;18.60;1.00
21216;DHT22;10765;50.954;5.322;2022-08-03T02:05:50;18.60;1.00
21216;DHT22;10765;50.954;5.322;2022-08-03T02:08:18;18.60;1.00
21216;DHT22;10765;50.954;5.322;2022-08-03T02:10:45;18.50;1.00
21216;DHT22;10765;50.954;5.322;2022-08-03T02:13:13;18.50;99.90
21216;DHT22;10765;50.954;5.322;2022-08-03T02:15:41;18.50;1.00
21216;DHT22;10765;50.954;5.322;2022-08-03T02:18:10;18.40;1.00
21216;DHT22;10765;50.954;5.322;2022-08-03T02:20:41;18.40;99.90
21216;DHT22;10765;50.954;5.322;2022-08-03T02:23:09;18.40;1.00
21216;DHT22;10765;50.954;5.322;2022-08-03T02:25:40;18.30;99.90
21216;DHT22;10765;50.954;5.322;2022-08-03T02:28:09;18.30;99.90
21216;DHT22;10765;50.954;5.322;2022-08-03T02:30:38;18.30;99.90
21216;DHT22;10765;50.954;5.322;2022-08-03T02:33:09;18.40;1.00
21216;DHT22;10765;50.954;5.322;2022-08-03T02:35:39;18.30;1.00
21216;DHT22;10765;50.954;5.322;2022-08-03T02:38:09;18.30;99.90
21216;DHT22;10765;50.954;5.322;2022-08-03T02:40:37;18.40;1.00
21216;DHT22;10765;50.954;5.322;2022-08-03T02:43:09;18.40;1.00
21216;DHT22;10765;50.954;5.322;2022-08-03T02:45:41;18.20;99.90
21216;DHT22;10765;50.954;5.322;2022-08-03T02:48:09;18.10;1.00
21216;DHT22;10765;50.954;5.322;2022-08-03T02:50:39;18.10;99.90
21216;DHT22;10765;50.954;5.322;2022-08-03T02:53:08;18.20;96.60
21216;DHT22;10765;50.954;5.322;2022-08-03T02:55:38;18.20;1.00
21216;DHT22;10765;50.954;5.322;2022-08-03T02:58:06;18.10;99.90
21216;DHT22;10765;50.954;5.322;2022-08-03T03:00:34;18.20;1.00
21216;DHT22;10765;50.954;5.322;2022-08-03T03:03:03;18.10;99.90
21216;DHT22;10765;50.954;5.322;2022-08-03T03:05:32;18.10;1.00
21216;DHT22;10765;50.954;5.322;2022-08-03T03:08:03;18.10;1.00
21216;DHT22;10765;50.954;5.322;2022-08-03T03:10:30;18.00;99.90
21216;DHT22;10765;50.954;5.322;2022-08-03T03:12:58;17.90;1.00
21216;DHT22;10765;50.954;5.322;2022-08-03T03:15:27;17.90;1.00
21216;DHT22;10765;50.954;5.322;2022-08-03T03:17:56;17.90;99.90
21216;DHT22;10765;50.954;5.322;2022-08-03T03:20:23;18.00;99.90
21216;DHT22;10765;50.954;5.322;2022-08-03T03:22:51;17.90;99.90
21216;DHT22;10765;50.954;5.322;2022-08-03T03:25:20;17.90;56.90
21216;DHT22;10765;50.954;5.322;2022-08-03T03:27:47;17.80;99.90
21216;DHT22;10765;50.954;5.322;2022-08-03T03:30:15;17.80;12.80
21216;DHT22;10765;50.954;5.322;2022-08-03T03:32:42;18.00;1.00
21216;DHT22;10765;50.954;5.322;2022-08-03T03:35:09;18.00;1.00
21216;DHT22;10765;50.954;5.322;2022-08-03T03:37:35;17.90;99.90
21216;DHT22;10765;50.954;5.322;2022-08-03T03:40:03;17.90;1.00
21216;DHT22;10765;50.954;5.322;2022-08-03T03:42:32;17.70;1.00
21216;DHT22;10765;50.954;5.322;2022-08-03T03:45:02;17.70;1.00
21216;DHT22;10765;50.954;5.322;2022-08-03T03:47:29;17.70;99.90
21216;DHT22;10765;50.954;5.322;2022-08-03T03:49:56;17.70;99.90
21216;DHT22;10765;50.954;5.322;2022-08-03T03:52:23;17.70;1.00
21216;DHT22;10765;50.954;5.322;2022-08-03T03:54:50;17.70;99.90
21216;DHT22;10765;50.954;5.322;2022-08-03T03:57:17;17.80;99.90
21216;DHT22;10765;50.954;5.322;2022-08-03T03:59:45;17.70;99.90
21216;DHT22;10765;50.954;5.322;2022-08-03T04:02:12;17.60;99.90
21216;DHT22;10765;50.954;5.322;2022-08-03T04:04:39;17.60;99.90
21216;DHT22;10765;50.954;5.322;2022-08-03T04:07:26;17.60;99.90
21216;DHT22;10765;50.954;5.322;2022-08-03T04:10:14;17.70;1.00
21216;DHT22;10765;50.954;5.322;2022-08-03T04:13:02;17.70;99.90
21216;DHT22;10765;50.954;5.322;2022-08-03T04:15:32;17.70;99.90
21216;DHT22;10765;50.954;5.322;2022-08-03T04:18:00;17.70;1.00
21216;DHT22;10765;50.954;5.322;2022-08-03T04:20:30;17.70;99.90
21216;DHT22;10765;50.954;5.322;2022-08-03T04:22:59;17.60;1.00
21216;DHT22;10765;50.954;5.322;2022-08-03T04:25:30;17.60;99.90
21216;DHT22;10765;50.954;5.322;2022-08-03T04:27:59;17.70;1.00
21216;DHT22;10765;50.954;5.322;2022-08-03T04:30:27;17.80;1.00
21216;DHT22;10765;50.954;5.322;2022-08-03T04:32:56;17.90;27.80
21216;DHT22;10765;50.954;5.322;2022-08-03T04:35:24;17.90;37.70
21216;DHT22;10765;50.954;5.322;2022-08-03T04:37:54;18.10;99.90
21216;DHT22;10765;50.954;5.322;2022-08-03T04:40:27;18.30;1.00
21216;DHT22;10765;50.954;5.322;2022-08-03T04:42:56;18.40;99.90
21216;DHT22;10765;50.954;5.322;2022-08-03T04:45:24;18.50;99.90
21216;DHT22;10765;50.954;5.322;2022-08-03T04:47:54;18.80;99.90
21216;DHT22;10765;50.954;5.322;2022-08-03T04:50:21;19.20;99.90
21216;DHT22;10765;50.954;5.322;2022-08-03T04:52:49;19.60;99.90
21216;DHT22;10765;50.954;5.322;2022-08-03T04:55:24;19.70;99.90
21216;DHT22;10765;50.954;5.322;2022-08-03T04:57:52;20.10;99.90
21216;DHT22;10765;50.954;5.322;2022-08-03T05:00:19;20.50;1.00
21216;DHT22;10765;50.954;5.322;2022-08-03T05:02:46;20.70;42.70
21216;DHT22;10765;50.954;5.322;2022-08-03T05:05:14;20.80;1.00
21216;DHT22;10765;50.954;5.322;2022-08-03T05:07:42;20.70;1.00
21216;DHT22;10765;50.954;5.322;2022-08-03T05:10:10;20.70;1.00
21216;DHT22;10765;50.954;5.322;2022-08-03T05:12:38;21.00;1.00
21216;DHT22;10765;50.954;5.322;2022-08-03T05:15:06;21.10;1.00
21216;DHT22;10765;50.954;5.322;2022-08-03T05:17:33;21.20;99.90
21216;DHT22;10765;50.954;5.322;2022-08-03T05:20:02;21.30;1.00
21216;DHT22;10765;50.954;5.322;2022-08-03T05:22:31;21.90;99.90
21216;DHT22;10765;50.954;5.322;2022-08-03T05:24:57;22.50;99.90
21216;DHT22;10765;50.954;5.322;2022-08-03T05:27:26;23.10;99.90
21216;DHT22;10765;50.954;5.322;2022-08-03T05:29:53;23.40;16.60
21216;DHT22;10765;50.954;5.322;2022-08-03T05:32:20;23.90;1.00
21216;DHT22;10765;50.954;5.322;2022-08-03T05:34:47;24.40;1.00
21216;DHT22;10765;50.954;5.322;2022-08-03T05:37:13;24.70;1.00
21216;DHT22;10765;50.954;5.322;2022-08-03T05:39:42;25.20;1.00
21216;DHT22;10765;50.954;5.322;2022-08-03T05:42:09;25.50;1.00
21216;DHT22;10765;50.954;5.322;2022-08-03T05:44:36;25.80;1.00
21216;DHT22;10765;50.954;5.322;2022-08-03T05:47:04;26.30;1.00
21216;DHT22;10765;50.954;5.322;2022-08-03T05:49:30;26.70;1.00
21216;DHT22;10765;50.954;5.322;2022-08-03T05:51:57;26.90;99.90
21216;DHT22;10765;50.954;5.322;2022-08-03T05:54:24;27.30;99.90
21216;DHT22;10765;50.954;5.322;2022-08-03T05:56:53;27.40;99.90
21216;DHT22;10765;50.954;5.322;2022-08-03T05:59:20;27.90;99.90
21216;DHT22;10765;50.954;5.322;2022-08-03T06:01:47;28.40;99.90
21216;DHT22;10765;50.954;5.322;2022-08-03T06:04:14;28.90;99.90
21216;DHT22;10765;50.954;5.322;2022-08-03T06:06:40;29.10;99.90
21216;DHT22;10765;50.954;5.322;2022-08-03T06:09:08;29.30;99.90
21216;DHT22;10765;50.954;5.322;2022-08-03T06:11:36;29.60;99.90
21216;DHT22;10765;50.954;5.322;2022-08-03T06:14:04;29.80;99.90
21216;DHT22;10765;50.954;5.322;2022-08-03T06:16:31;29.90;99.90
21216;DHT22;10765;50.954;5.322;2022-08-03T06:18:58;29.70;99.90
21216;DHT22;10765;50.954;5.322;2022-08-03T06:21:25;30.10;99.90
21216;DHT22;10765;50.954;5.322;2022-08-03T06:23:52;30.40;99.90
21216;DHT22;10765;50.954;5.322;2022-08-03T06:26:19;30.80;99.90
21216;DHT22;10765;50.954;5.322;2022-08-03T06:28:46;30.80;99.90
21216;DHT22;10765;50.954;5.322;2022-08-03T06:31:15;31.40;99.90
21216;DHT22;10765;50.954;5.322;2022-08-03T06:33:42;31.60;99.90
21216;DHT22;10765;50.954;5.322;2022-08-03T06:36:09;32.10;99.90
21216;DHT22;10765;50.954;5.322;2022-08-03T06:38:35;32.70;99.90
21216;DHT22;10765;50.954;5.322;2022-08-03T06:41:02;32.70;99.90
21216;DHT22;10765;50.954;5.322;2022-08-03T06:43:29;32.80;99.90
21216;DHT22;10765;50.954;5.322;2022-08-03T06:46:00;32.30;99.90
21216;DHT22;10765;50.954;5.322;2022-08-03T06:48:28;32.40;99.90
21216;DHT22;10765;50.954;5.322;2022-08-03T06:50:55;32.50;99.90
21216;DHT22;10765;50.954;5.322;2022-08-03T06:53:22;33.20;99.90
21216;DHT22;10765;50.954;5.322;2022-08-03T06:55:49;33.80;99.90
21216;DHT22;10765;50.954;5.322;2022-08-03T06:58:16;33.10;99.90
21216;DHT22;10765;50.954;5.322;2022-08-03T07:00:43;33.40;99.90
21216;DHT22;10765;50.954;5.322;2022-08-03T07:03:09;33.80;99.90
21216;DHT22;10765;50.954;5.322;2022-08-03T07:05:38;34.10;99.90
21216;DHT22;10765;50.954;5.322;2022-08-03T07:08:05;34.00;99.90
21216;DHT22;10765;50.954;5.322;2022-08-03T07:10:32;34.40;99.90
21216;DHT22;10765;50.954;5.322;2022-08-03T07:12:59;34.40;99.90
21216;DHT22;10765;50.954;5.322;2022-08-03T07:15:29;35.30;99.90
21216;DHT22;10765;50.954;5.322;2022-08-03T07:17:56;35.10;99.90
21216;DHT22;10765;50.954;5.322;2022-08-03T07:20:23;35.10;99.90
21216;DHT22;10765;50.954;5.322;2022-08-03T07:22:51;35.40;99.90
21216;DHT22;10765;50.954;5.322;2022-08-03T07:25:18;34.70;99.90
21216;DHT22;10765;50.954;5.322;2022-08-03T07:27:46;35.20;99.90
21216;DHT22;10765;50.954;5.322;2022-08-03T07:30:14;35.70;99.90
21216;DHT22;10765;50.954;5.322;2022-08-03T07:32:41;35.70;99.90
21216;DHT22;10765;50.954;5.322;2022-08-03T07:35:09;35.40;99.90
21216;DHT22;10765;50.954;5.322;2022-08-03T07:37:36;35.30;99.90
21216;DHT22;10765;50.954;5.322;2022-08-03T07:40:05;35.10;99.90
21216;DHT22;10765;50.954;5.322;2022-08-03T07:42:32;34.70;99.90
21216;DHT22;10765;50.954;5.322;2022-08-03T07:44:59;34.30;99.90
21216;DHT22;10765;50.954;5.322;2022-08-03T07:47:28;35.00;99.90
21216;DHT22;10765;50.954;5.322;2022-08-03T07:49:56;36.00;99.90
21216;DHT22;10765;50.954;5.322;2022-08-03T07:52:23;35.10;99.90
21216;DHT22;10765;50.954;5.322;2022-08-03T07:55:09;35.50;99.90
21216;DHT22;10765;50.954;5.322;2022-08-03T07:57:36;34.80;99.90
21216;DHT22;10765;50.954;5.322;2022-08-03T08:00:06;34.20;99.90
21216;DHT22;10765;50.954;5.322;2022-08-03T08:02:34;34.30;99.90
21216;DHT22;10765;50.954;5.322;2022-08-03T08:05:01;34.80;99.90
21216;DHT22;10765;50.954;5.322;2022-08-03T08:07:27;35.30;99.90
21216;DHT22;10765;50.954;5.322;2022-08-03T08:09:54;35.40;99.90
21216;DHT22;10765;50.954;5.322;2022-08-03T08:12:23;35.70;99.90
21216;DHT22;10765;50.954;5.322;2022-08-03T08:14:49;36.20;99.90
21216;DHT22;10765;50.954;5.322;2022-08-03T08:17:16;36.20;99.90
21216;DHT22;10765;50.954;5.322;2022-08-03T08:19:44;36.90;99.90
21216;DHT22;10765;50.954;5.322;2022-08-03T08:22:11;37.20;99.90
21216;DHT22;10765;50.954;5.322;2022-08-03T08:24:38;36.70;99.90
21216;DHT22;10765;50.954;5.322;2022-08-03T08:27:05;36.60;99.90
21216;DHT22;10765;50.954;5.322;2022-08-03T08:29:34;37.60;99.90
21216;DHT22;10765;50.954;5.322;2022-08-03T08:32:01;37.70;99.90
21216;DHT22;10765;50.954;5.322;2022-08-03T08:34:28;37.50;99.90
21216;DHT22;10765;50.954;5.322;2022-08-03T08:36:55;37.10;99.90
21216;DHT22;10765;50.954;5.322;2022-08-03T08:39:23;37.80;99.90
21216;DHT22;10765;50.954;5.322;2022-08-03T08:41:50;38.30;99.90
21216;DHT22;10765;50.954;5.322;2022-08-03T08:44:17;38.40;99.90
21216;DHT22;10765;50.954;5.322;2022-08-03T08:46:46;38.40;99.90
21216;DHT22;10765;50.954;5.322;2022-08-03T08:49:16;38.20;99.90
21216;DHT22;10765;50.954;5.322;2022-08-03T08:51:45;37.90;99.90
21216;DHT22;10765;50.954;5.322;2022-08-03T08:54:15;37.80;99.90
21216;DHT22;10765;50.954;5.322;2022-08-03T08:56:44;38.30;99.90
21216;DHT22;10765;50.954;5.322;2022-08-03T08:59:11;38.80;99.90
21216;DHT22;10765;50.954;5.322;2022-08-03T09:01:38;39.40;99.90
21216;DHT22;10765;50.954;5.322;2022-08-03T09:04:07;40.00;99.90
21216;DHT22;10765;50.954;5.322;2022-08-03T09:06:34;40.90;99.90
21216;DHT22;10765;50.954;5.322;2022-08-03T09:09:01;41.10;99.90
21216;DHT22;10765;50.954;5.322;2022-08-03T09:11:27;41.70;99.90
21216;DHT22;10765;50.954;5.322;2022-08-03T09:13:54;41.10;99.90
21216;DHT22;10765;50.954;5.322;2022-08-03T09:16:21;40.40;99.90
21216;DHT22;10765;50.954;5.322;2022-08-03T09:18:53;41.10;99.90
21216;DHT22;10765;50.954;5.322;2022-08-03T09:21:24;41.50;99.90
21216;DHT22;10765;50.954;5.322;2022-08-03T09:23:52;42.40;99.90
21216;DHT22;10765;50.954;5.322;2022-08-03T09:26:20;41.80;99.90
21216;DHT22;10765;50.954;5.322;2022-08-03T09:28:54;42.20;99.90
21216;DHT22;10765;50.954;5.322;2022-08-03T09:31:32;41.50;99.90
21216;DHT22;10765;50.954;5.322;2022-08-03T09:34:01;41.10;99.90
21216;DHT22;10765;50.954;5.322;2022-08-03T09:36:38;42.40;99.90
21216;DHT22;10765;50.954;5.322;2022-08-03T09:39:07;42.30;99.90
21216;DHT22;10765;50.954;5.322;2022-08-03T09:41:37;41.20;99.90
21216;DHT22;10765;50.954;5.322;2022-08-03T09:44:05;41.50;99.90
21216;DHT22;10765;50.954;5.322;2022-08-03T09:46:44;41.30;99.90
21216;DHT22;10765;50.954;5.322;2022-08-03T09:49:12;42.70;99.90
21216;DHT22;10765;50.954;5.322;2022-08-03T09:51:41;43.20;99.90
21216;DHT22;10765;50.954;5.322;2022-08-03T09:54:08;43.80;99.90
21216;DHT22;10765;50.954;5.322;2022-08-03T09:56:39;44.30;99.90
21216;DHT22;10765;50.954;5.322;2022-08-03T09:59:06;44.00;99.90
21216;DHT22;10765;50.954;5.322;2022-08-03T10:01:34;43.60;99.90
21216;DHT22;10765;50.954;5.322;2022-08-03T10:04:02;43.80;99.90
21216;DHT22;10765;50.954;5.322;2022-08-03T10:06:29;44.50;99.90
21216;DHT22;10765;50.954;5.322;2022-08-03T10:09:06;45.20;99.90
21216;DHT22;10765;50.954;5.322;2022-08-03T10:11:33;44.50;99.90
21216;DHT22;10765;50.954;5.322;2022-08-03T10:14:03;42.70;99.90
21216;DHT22;10765;50.954;5.322;2022-08-03T10:16:35;42.60;99.90
21216;DHT22;10765;50.954;5.322;2022-08-03T10:19:03;44.10;99.90
21216;DHT22;10765;50.954;5.322;2022-08-03T10:21:32;45.10;99.90
21216;DHT22;10765;50.954;5.322;2022-08-03T10:24:02;45.40;99.90
21216;DHT22;10765;50.954;5.322;2022-08-03T10:26:33;45.90;99.90
21216;DHT22;10765;50.954;5.322;2022-08-03T10:29:03;45.00;99.90
21216;DHT22;10765;50.954;5.322;2022-08-03T10:31:34;45.80;99.90
21216;DHT22;10765;50.954;5.322;2022-08-03T10:34:06;44.50;99.90
21216;DHT22;10765;50.954;5.322;2022-08-03T10:36:35;44.60;99.90
21216;DHT22;10765;50.954;5.322;2022-08-03T10:39:04;45.60;99.90
21216;DHT22;10765;50.954;5.322;2022-08-03T10:41:37;44.80;99.90
21216;DHT22;10765;50.954;5.322;2022-08-03T10:44:08;44.60;99.90
21216;DHT22;10765;50.954;5.322;2022-08-03T10:46:37;44.20;99.90
21216;DHT22;10765;50.954;5.322;2022-08-03T10:49:05;44.50;99.90
21216;DHT22;10765;50.954;5.322;2022-08-03T10:51:33;44.90;99.90
21216;DHT22;10765;50.954;5.322;2022-08-03T10:54:00;44.50;99.90
21216;DHT22;10765;50.954;5.322;2022-08-03T10:56:41;44.90;99.90
21216;DHT22;10765;50.954;5.322;2022-08-03T10:59:57;45.70;99.90
21216;DHT22;10765;50.954;5.322;2022-08-03T11:05:41;46.30;99.90
21216;DHT22;10765;50.954;5.322;2022-08-03T11:08:32;46.50;99.90
21216;DHT22;10765;50.954;5.322;2022-08-03T11:11:02;47.50;99.90
21216;DHT22;10765;50.954;5.322;2022-08-03T11:13:58;47.60;99.90
21216;DHT22;10765;50.954;5.322;2022-08-03T11:16:28;47.10;99.90
21216;DHT22;10765;50.954;5.322;2022-08-03T11:18:56;46.60;99.90
21216;DHT22;10765;50.954;5.322;2022-08-03T11:21:51;46.50;99.90
21216;DHT22;10765;50.954;5.322;2022-08-03T11:27:21;47.10;99.90
21216;DHT22;10765;50.954;5.322;2022-08-03T11:29:57;48.70;99.90
21216;DHT22;10765;50.954;5.322;2022-08-03T11:35:34;46.20;99.90
21216;DHT22;10765;50.954;5.322;2022-08-03T11:38:08;46.50;99.90
21216;DHT22;10765;50.954;5.322;2022-08-03T11:40:41;45.50;99.90
21216;DHT22;10765;50.954;5.322;2022-08-03T11:43:10;45.80;99.90
21216;DHT22;10765;50.954;5.322;2022-08-03T11:46:02;46.40;99.90
21216;DHT22;10765;50.954;5.322;2022-08-03T11:48:34;46.10;99.90
21216;DHT22;10765;50.954;5.322;2022-08-03T11:51:02;46.90;99.90
21216;DHT22;10765;50.954;5.322;2022-08-03T11:53:30;46.50;99.90
21216;DHT22;10765;50.954;5.322;2022-08-03T11:55:58;45.80;99.90
21216;DHT22;10765;50.954;5.322;2022-08-03T11:58:26;47.30;99.90
21216;DHT22;10765;50.954;5.322;2022-08-03T12:01:04;46.60;99.90
21216;DHT22;10765;50.954;5.322;2022-08-03T12:03:31;45.80;99.90
21216;DHT22;10765;50.954;5.322;2022-08-03T12:05:59;47.70;99.90
21216;DHT22;10765;50.954;5.322;2022-08-03T12:08:31;49.20;99.90
21216;DHT22;10765;50.954;5.322;2022-08-03T12:10:59;50.10;99.90
21216;DHT22;10765;50.954;5.322;2022-08-03T12:13:35;49.30;99.90
21216;DHT22;10765;50.954;5.322;2022-08-03T12:16:03;48.00;99.90
21216;DHT22;10765;50.954;5.322;2022-08-03T12:18:31;47.20;99.90
21216;DHT22;10765;50.954;5.322;2022-08-03T12:21:04;45.00;99.90
21216;DHT22;10765;50.954;5.322;2022-08-03T12:23:31;46.00;99.90
21216;DHT22;10765;50.954;5.322;2022-08-03T12:26:01;46.20;99.90
21216;DHT22;10765;50.954;5.322;2022-08-03T12:28:29;48.30;99.90
21216;DHT22;10765;50.954;5.322;2022-08-03T12:31:01;48.50;99.90
21216;DHT22;10765;50.954;5.322;2022-08-03T12:33:29;49.00;99.90
21216;DHT22;10765;50.954;5.322;2022-08-03T12:36:04;46.60;99.90
21216;DHT22;10765;50.954;5.322;2022-08-03T12:38:33;47.60;99.90
21216;DHT22;10765;50.954;5.322;2022-08-03T12:41:03;47.40;99.90
21216;DHT22;10765;50.954;5.322;2022-08-03T12:43:31;47.70;99.90
21216;DHT22;10765;50.954;5.322;2022-08-03T12:46:09;46.00;99.90
21216;DHT22;10765;50.954;5.322;2022-08-03T12:48:57;47.40;99.90
21216;DHT22;10765;50.954;5.322;2022-08-03T12:51:24;45.80;99.90
21216;DHT22;10765;50.954;5.322;2022-08-03T12:53:52;42.10;99.90
21216;DHT22;10765;50.954;5.322;2022-08-03T12:56:22;42.20;99.90
21216;DHT22;10765;50.954;5.322;2022-08-03T12:58:49;41.30;99.90
21216;DHT22;10765;50.954;5.322;2022-08-03T13:01:17;38.60;99.90
21216;DHT22;10765;50.954;5.322;2022-08-03T13:03:49;37.70;99.90
21216;DHT22;10765;50.954;5.322;2022-08-03T13:06:18;41.00;99.90
21216;DHT22;10765;50.954;5.322;2022-08-03T13:08:45;44.10;99.90
21216;DHT22;10765;50.954;5.322;2022-08-03T13:11:21;46.30;99.90
21216;DHT22;10765;50.954;5.322;2022-08-03T13:13:48;44.60;99.90
21216;DHT22;10765;50.954;5.322;2022-08-03T13:16:15;41.60;99.90
21216;DHT22;10765;50.954;5.322;2022-08-03T13:18:42;41.90;99.90
21216;DHT22;10765;50.954;5.322;2022-08-03T13:21:13;41.30;99.90
21216;DHT22;10765;50.954;5.322;2022-08-03T13:23:40;40.30;99.90
21216;DHT22;10765;50.954;5.322;2022-08-03T13:26:07;43.40;99.90
21216;DHT22;10765;50.954;5.322;2022-08-03T13:28:34;46.40;99.90
21216;DHT22;10765;50.954;5.322;2022-08-03T13:31:01;47.70;99.90
21216;DHT22;10765;50.954;5.322;2022-08-03T13:33:28;48.70;99.90
21216;DHT22;10765;50.954;5.322;2022-08-03T13:35:55;50.20;99.90
21216;DHT22;10765;50.954;5.322;2022-08-03T13:38:24;49.10;99.90
21216;DHT22;10765;50.954;5.322;2022-08-03T13:40:51;49.00;99.90
21216;DHT22;10765;50.954;5.322;2022-08-03T13:43:18;49.00;99.90
21216;DHT22;10765;50.954;5.322;2022-08-03T13:45:45;46.90;99.90
21216;DHT22;10765;50.954;5.322;2022-08-03T13:48:12;44.40;99.90
21216;DHT22;10765;50.954;5.322;2022-08-03T13:50:39;40.20;99.90
21216;DHT22;10765;50.954;5.322;2022-08-03T13:53:08;37.80;1.00
21216;DHT22;10765;50.954;5.322;2022-08-03T13:55:37;36.90;1.00
21216;DHT22;10765;50.954;5.322;2022-08-03T13:58:04;36.80;1.00
21216;DHT22;10765;50.954;5.322;2022-08-03T14:00:32;36.50;1.00
21216;DHT22;10765;50.954;5.322;2022-08-03T14:03:00;36.40;1.00
21216;DHT22;10765;50.954;5.322;2022-08-03T14:05:28;36.80;1.00
21216;DHT22;10765;50.954;5.322;2022-08-03T14:07:56;36.90;1.00
21216;DHT22;10765;50.954;5.322;2022-08-03T14:10:23;36.70;1.00
21216;DHT22;10765;50.954;5.322;2022-08-03T14:12:51;36.10;1.00
21216;DHT22;10765;50.954;5.322;2022-08-03T14:15:18;34.90;1.00
21216;DHT22;10765;50.954;5.322;2022-08-03T14:17:45;34.70;1.00
21216;DHT22;10765;50.954;5.322;2022-08-03T14:20:12;35.00;1.00
21216;DHT22;10765;50.954;5.322;2022-08-03T14:22:40;35.30;1.00
21216;DHT22;10765;50.954;5.322;2022-08-03T14:25:07;35.60;1.00
21216;DHT22;10765;50.954;5.322;2022-08-03T14:27:34;36.20;1.00
21216;DHT22;10765;50.954;5.322;2022-08-03T14:30:03;36.20;1.00
21216;DHT22;10765;50.954;5.322;2022-08-03T14:32:30;36.00;1.00
21216;DHT22;10765;50.954;5.322;2022-08-03T14:34:57;35.90;1.00
21216;DHT22;10765;50.954;5.322;2022-08-03T14:37:24;35.90;1.00
21216;DHT22;10765;50.954;5.322;2022-08-03T14:39:51;36.20;99.90
21216;DHT22;10765;50.954;5.322;2022-08-03T14:42:18;36.50;99.90
21216;DHT22;10765;50.954;5.322;2022-08-03T14:44:45;36.60;99.90
21216;DHT22;10765;50.954;5.322;2022-08-03T14:47:13;36.00;99.90
21216;DHT22;10765;50.954;5.322;2022-08-03T14:49:40;35.70;99.90
21216;DHT22;10765;50.954;5.322;2022-08-03T14:52:08;35.60;1.00
21216;DHT22;10765;50.954;5.322;2022-08-03T14:54:35;35.60;1.00
21216;DHT22;10765;50.954;5.322;2022-08-03T14:57:02;35.70;99.90
21216;DHT22;10765;50.954;5.322;2022-08-03T14:59:29;35.60;99.90
21216;DHT22;10765;50.954;5.322;2022-08-03T15:01:56;35.60;99.90
21216;DHT22;10765;50.954;5.322;2022-08-03T15:04:24;35.50;1.00
21216;DHT22;10765;50.954;5.322;2022-08-03T15:06:51;35.50;99.90
21216;DHT22;10765;50.954;5.322;2022-08-03T15:09:17;34.80;1.00
21216;DHT22;10765;50.954;5.322;2022-08-03T15:11:44;34.20;1.00
21216;DHT22;10765;50.954;5.322;2022-08-03T15:14:11;33.80;1.00
21216;DHT22;10765;50.954;5.322;2022-08-03T15:16:38;34.10;1.00
21216;DHT22;10765;50.954;5.322;2022-08-03T15:19:05;34.20;1.00
21216;DHT22;10765;50.954;5.322;2022-08-03T15:21:34;34.00;1.00
21216;DHT22;10765;50.954;5.322;2022-08-03T15:24:01;33.90;1.00
21216;DHT22;10765;50.954;5.322;2022-08-03T15:26:28;33.70;1.00
21216;DHT22;10765;50.954;5.322;2022-08-03T15:28:54;33.90;1.00
21216;DHT22;10765;50.954;5.322;2022-08-03T15:31:23;34.20;1.00
21216;DHT22;10765;50.954;5.322;2022-08-03T15:33:52;34.50;1.00
21216;DHT22;10765;50.954;5.322;2022-08-03T15:36:19;34.30;1.00
21216;DHT22;10765;50.954;5.322;2022-08-03T15:38:48;34.10;1.00
21216;DHT22;10765;50.954;5.322;2022-08-03T15:41:15;34.00;1.00
21216;DHT22;10765;50.954;5.322;2022-08-03T15:43:42;33.80;1.00
21216;DHT22;10765;50.954;5.322;2022-08-03T15:46:10;33.80;1.00
21216;DHT22;10765;50.954;5.322;2022-08-03T15:48:38;33.90;1.00
21216;DHT22;10765;50.954;5.322;2022-08-03T15:51:08;34.10;1.00
21216;DHT22;10765;50.954;5.322;2022-08-03T15:53:35;34.30;1.00
21216;DHT22;10765;50.954;5.322;2022-08-03T15:56:04;34.20;1.00